Time;durP1;ratioP1;P1;durP2;ratioP2;P2;SDS_P1;SDS_P2;PMS_P1;PMS_P2;Temp;Humidity;BMP_temperature;BMP_pressure;BME280_temperature;BME280_humidity;BME280_pressure;Samples;Min_cycle;Max_cycle;Signal;HPM_P1;HPM_P2
2021/12/19 00:02:48;;;;;;;32.33;14.63;;;3.90;99.90;;;;;;4999587;28;20025;-87
2021/12/19 00:08:27;;;;;;;30.25;14.15;;;3.90;99.90;;;;;;5008789;28;20047;-87
2021/12/19 00:10:11;;;;;;;31.88;14.15;;;4.00;99.90;;;;;;5000866;28;20083;-87
2021/12/19 00:12:37;;;;;;;31.95;14.48;;;4.00;99.90;;;;;;5000066;28;20019;-87
2021/12/19 00:15:03;;;;;;;33.08;14.98;;;4.00;99.90;;;;;;5000553;28;20018;-88
2021/12/19 00:17:29;;;;;;;33.65;14.02;;;4.10;99.90;;;;;;5000602;28;20015;-87
2021/12/19 00:19:55;;;;;;;30.38;14.52;;;4.10;99.90;;;;;;5000508;28;20018;-86
2021/12/19 00:22:21;;;;;;;29.30;13.88;;;4.20;99.90;;;;;;5000172;28;20034;-86
2021/12/19 00:24:47;;;;;;;32.05;14.88;;;4.20;99.90;;;;;;4999614;28;20086;-86
2021/12/19 00:27:13;;;;;;;28.77;13.13;;;4.20;99.90;;;;;;4999949;28;20019;-87
2021/12/19 00:29:38;;;;;;;32.05;14.63;;;4.20;99.90;;;;;;4999360;28;20077;-86
2021/12/19 00:32:04;;;;;;;30.40;13.98;;;4.20;99.90;;;;;;4983214;28;20061;-87
2021/12/19 00:34:30;;;;;;;29.98;13.77;;;4.10;99.90;;;;;;4999953;28;20041;-88
2021/12/19 00:36:56;;;;;;;34.22;14.55;;;4.10;99.90;;;;;;4999535;28;20007;-87
2021/12/19 00:39:22;;;;;;;30.30;14.07;;;4.10;99.90;;;;;;4999517;28;20030;-88
2021/12/19 00:41:52;;;;;;;32.75;14.18;;;4.10;99.90;;;;;;4983074;28;20030;-88
2021/12/19 00:44:23;;;;;;;29.35;13.68;;;4.00;99.90;;;;;;4999536;28;20073;-86
2021/12/19 00:46:52;;;;;;;28.98;13.85;;;4.00;99.90;;;;;;4999493;28;20027;-87
2021/12/19 00:49:20;;;;;;;33.00;15.43;;;4.00;99.90;;;;;;4999798;28;20014;-87
2021/12/19 00:51:46;;;;;;;30.70;14.50;;;4.00;99.90;;;;;;4999039;28;20025;-86
2021/12/19 00:54:13;;;;;;;32.20;15.35;;;4.00;99.90;;;;;;4999690;28;20015;-87
2021/12/19 00:56:41;;;;;;;32.72;14.73;;;3.90;99.90;;;;;;4999246;28;20054;-86
2021/12/19 00:59:08;;;;;;;34.17;15.30;;;3.90;99.90;;;;;;4999463;28;20019;-88
2021/12/19 01:01:35;;;;;;;32.00;14.30;;;3.80;99.90;;;;;;4998540;28;20057;-87
2021/12/19 01:04:03;;;;;;;33.63;14.73;;;3.80;99.90;;;;;;4988183;28;20061;-87
2021/12/19 01:06:29;;;;;;;33.40;14.32;;;3.80;99.90;;;;;;4987183;28;20031;-88
2021/12/19 01:08:55;;;;;;;34.92;15.65;;;3.70;99.90;;;;;;4983769;28;20057;-89
2021/12/19 01:11:21;;;;;;;35.45;15.13;;;3.70;99.90;;;;;;4984296;28;20033;-88
2021/12/19 01:13:47;;;;;;;37.60;15.88;;;3.60;99.90;;;;;;4983786;28;20027;-88
2021/12/19 01:16:15;;;;;;;37.95;16.88;;;3.60;99.90;;;;;;4981770;28;20039;-89
2021/12/19 01:18:41;;;;;;;32.30;15.88;;;3.60;99.90;;;;;;4992832;28;20050;-88
2021/12/19 01:21:07;;;;;;;32.95;16.60;;;3.70;99.90;;;;;;4998197;28;20053;-87
2021/12/19 01:23:33;;;;;;;34.03;15.77;;;3.70;99.90;;;;;;4998214;28;20914;-87
2021/12/19 01:25:59;;;;;;;36.25;16.63;;;3.70;99.90;;;;;;4998179;28;20078;-88
2021/12/19 01:28:25;;;;;;;33.60;15.82;;;3.70;99.90;;;;;;4998027;28;20035;-87
2021/12/19 01:30:51;;;;;;;35.97;16.60;;;3.60;99.90;;;;;;4998727;28;20038;-88
2021/12/19 01:33:17;;;;;;;35.85;16.90;;;3.70;99.90;;;;;;4981707;28;20039;-89
2021/12/19 01:35:43;;;;;;;36.78;16.27;;;3.70;99.90;;;;;;4997970;28;20046;-89
2021/12/19 01:38:08;;;;;;;40.13;16.80;;;3.70;99.90;;;;;;4997840;28;20038;-88
2021/12/19 01:40:34;;;;;;;37.10;16.98;;;3.80;99.90;;;;;;4998477;28;20070;-87
2021/12/19 01:43:00;;;;;;;35.55;17.23;;;3.80;99.90;;;;;;4997650;28;20019;-87
2021/12/19 01:45:34;;;;;;;40.88;17.55;;;3.80;99.90;;;;;;4993870;28;20035;-87
2021/12/19 01:48:03;;;;;;;38.35;16.88;;;3.80;99.90;;;;;;5055909;23;20026;-86
2021/12/19 01:50:31;;;;;;;41.58;18.23;;;3.80;99.90;;;;;;5018296;28;20022;-87
2021/12/19 01:52:58;;;;;;;40.33;17.25;;;3.80;99.90;;;;;;5017784;28;20031;-87
2021/12/19 01:55:24;;;;;;;40.42;17.55;;;3.80;99.90;;;;;;5017891;28;20011;-86
2021/12/19 01:57:50;;;;;;;38.42;18.13;;;3.80;99.90;;;;;;5018039;28;20021;-88
2021/12/19 02:00:21;;;;;;;39.35;17.52;;;3.80;99.90;;;;;;5017382;28;20023;-87
2021/12/19 02:02:49;;;;;;;42.88;17.63;;;3.70;99.90;;;;;;5017742;28;20010;-86
2021/12/19 02:05:15;;;;;;;38.03;16.65;;;3.80;99.90;;;;;;5000286;28;20038;-86
2021/12/19 02:07:46;;;;;;;39.95;18.08;;;3.70;99.90;;;;;;5003979;28;20091;-87
2021/12/19 02:10:13;;;;;;;39.38;17.80;;;3.80;99.90;;;;;;5006632;28;20442;-85
2021/12/19 02:12:39;;;;;;;42.17;18.40;;;3.80;99.90;;;;;;5009759;28;20081;-86
2021/12/19 02:15:05;;;;;;;41.33;17.92;;;3.80;99.90;;;;;;5010367;28;20010;-86
2021/12/19 02:17:31;;;;;;;36.58;16.73;;;3.80;99.90;;;;;;5014556;28;20053;-86
2021/12/19 02:19:57;;;;;;;39.17;16.90;;;3.80;99.90;;;;;;5015481;28;20094;-86
2021/12/19 02:22:23;;;;;;;39.00;17.02;;;3.80;99.90;;;;;;5012245;28;20026;-87
2021/12/19 02:24:49;;;;;;;43.22;17.58;;;3.80;99.90;;;;;;5017714;28;20049;-87
2021/12/19 02:27:15;;;;;;;40.63;17.05;;;3.90;99.90;;;;;;5000426;28;20054;-86
2021/12/19 02:29:41;;;;;;;38.65;17.02;;;3.80;99.90;;;;;;5015297;28;20038;-87
2021/12/19 02:32:07;;;;;;;42.28;18.08;;;3.90;99.90;;;;;;5015574;28;20026;-87
2021/12/19 02:34:39;;;;;;;40.88;17.30;;;3.90;99.90;;;;;;5015927;28;20410;-85
2021/12/19 02:37:17;;;;;;;40.42;17.60;;;3.90;99.90;;;;;;5016009;28;20025;-86
2021/12/19 02:50:28;;;;;;;38.33;16.20;;;4.00;99.90;;;;;;5013689;28;20034;-87
2021/12/19 02:52:54;;;;;;;36.80;15.98;;;4.10;99.90;;;;;;5020082;28;20022;-87
2021/12/19 02:55:20;;;;;;;38.10;15.77;;;4.00;99.90;;;;;;5019659;28;20082;-86
2021/12/19 02:57:49;;;;;;;38.55;16.70;;;4.00;99.90;;;;;;5020518;28;20058;-85
2021/12/19 03:00:22;;;;;;;36.80;16.27;;;4.00;99.90;;;;;;5020042;28;20014;-87
2021/12/19 03:02:48;;;;;;;41.00;17.00;;;4.00;99.90;;;;;;5020653;28;20041;-86
2021/12/19 03:05:14;;;;;;;37.80;17.45;;;4.00;99.90;;;;;;5021234;28;20030;-85
2021/12/19 03:07:42;;;;;;;39.63;16.20;;;4.00;99.90;;;;;;5019767;28;20026;-85
2021/12/19 03:18:10;;;;;;;37.13;16.60;;;3.90;99.90;;;;;;5020577;28;20015;-86
2021/12/19 03:20:38;;;;;;;41.55;16.77;;;3.90;99.90;;;;;;5003348;28;20280;-87
2021/12/19 03:23:05;;;;;;;41.15;16.98;;;3.90;99.90;;;;;;5010246;28;20078;-86
2021/12/19 03:25:33;;;;;;;40.60;17.08;;;3.90;99.90;;;;;;5005597;28;20382;-86
2021/12/19 03:28:00;;;;;;;36.92;14.88;;;4.00;99.90;;;;;;5004710;28;20062;-87
2021/12/19 03:30:27;;;;;;;35.88;14.90;;;4.00;99.90;;;;;;5007116;28;20022;-86
2021/12/19 03:32:53;;;;;;;37.47;14.85;;;4.00;99.90;;;;;;5005446;28;20030;-86
2021/12/19 03:35:20;;;;;;;37.47;16.05;;;4.00;99.90;;;;;;5005840;28;20031;-87
2021/12/19 03:37:47;;;;;;;36.10;15.95;;;4.00;99.90;;;;;;5003323;28;20124;-87
2021/12/19 03:40:21;;;;;;;35.70;15.38;;;4.00;99.90;;;;;;5004682;28;20018;-86
2021/12/19 03:42:49;;;;;;;37.50;15.32;;;4.00;99.90;;;;;;5017419;28;20630;-87
2021/12/19 03:45:18;;;;;;;43.45;15.75;;;3.90;99.90;;;;;;5006266;28;20060;-87
2021/12/19 03:47:45;;;;;;;37.28;15.38;;;4.00;99.90;;;;;;5006263;28;20390;-87
2021/12/19 03:50:15;;;;;;;35.78;14.88;;;4.00;99.90;;;;;;5006329;28;20033;-87
2021/12/19 03:52:41;;;;;;;33.45;14.57;;;4.00;99.90;;;;;;5005846;28;20035;-88
2021/12/19 03:55:08;;;;;;;33.42;14.55;;;4.00;99.90;;;;;;5006676;28;20020;-86
2021/12/19 03:57:34;;;;;;;32.35;14.40;;;4.00;99.90;;;;;;5007475;28;20034;-87
2021/12/19 04:00:00;;;;;;;34.88;14.30;;;4.00;99.90;;;;;;5006927;28;20054;-86
2021/12/19 04:02:26;;;;;;;33.13;15.05;;;4.00;99.90;;;;;;5009942;28;20038;-86
2021/12/19 04:04:55;;;;;;;32.65;14.38;;;4.00;99.90;;;;;;5013223;28;20034;-85
2021/12/19 04:07:22;;;;;;;35.83;13.15;;;4.00;99.90;;;;;;5012664;28;20018;-87
2021/12/19 04:09:48;;;;;;;35.08;15.35;;;4.00;99.90;;;;;;5011453;28;20030;-86
2021/12/19 04:12:15;;;;;;;34.47;14.43;;;3.90;99.90;;;;;;5007168;28;20052;-87
2021/12/19 04:14:41;;;;;;;38.00;13.85;;;3.90;99.90;;;;;;5007622;28;20022;-86
2021/12/19 04:17:07;;;;;;;33.25;12.32;;;4.00;99.90;;;;;;5014361;28;20034;-86
2021/12/19 04:19:33;;;;;;;29.05;13.05;;;4.00;99.90;;;;;;5017634;28;20039;-86
2021/12/19 04:21:59;;;;;;;33.35;13.75;;;4.00;99.90;;;;;;5013916;28;20041;-87
2021/12/19 04:24:26;;;;;;;28.88;12.90;;;4.00;99.90;;;;;;5005525;28;20382;-86
2021/12/19 04:26:57;;;;;;;31.92;13.23;;;4.00;99.90;;;;;;4990653;28;20034;-86
2021/12/19 04:29:24;;;;;;;33.65;13.07;;;4.00;99.90;;;;;;5010027;28;20022;-86
2021/12/19 04:31:51;;;;;;;31.40;13.55;;;4.00;99.90;;;;;;5010771;28;20089;-85
2021/12/19 04:34:17;;;;;;;33.83;13.10;;;4.00;99.90;;;;;;5011645;28;20038;-87
2021/12/19 04:36:47;;;;;;;29.48;12.18;;;4.00;99.90;;;;;;5010287;28;20386;-86
2021/12/19 05:00:46;;;;;;;31.55;13.40;;;3.90;99.90;;;;;;5017993;28;20090;-86
2021/12/19 05:03:29;;;;;;;31.80;13.60;;;3.90;99.90;;;;;;5013409;28;20015;-86
2021/12/19 05:16:33;;;;;;;30.10;13.20;;;3.80;99.90;;;;;;5017668;28;20019;-86
2021/12/19 05:19:01;;;;;;;34.75;13.43;;;3.70;99.90;;;;;;5017739;28;20090;-86
2021/12/19 05:21:28;;;;;;;30.98;12.45;;;3.80;99.90;;;;;;5000867;28;20022;-87
2021/12/19 05:26:23;;;;;;;29.90;12.75;;;3.70;99.90;;;;;;5007937;28;20041;-86
2021/12/19 05:28:52;;;;;;;26.45;12.32;;;3.70;99.90;;;;;;5005625;28;20026;-85
2021/12/19 05:31:19;;;;;;;31.75;13.25;;;3.70;99.90;;;;;;5006631;28;20104;-86
2021/12/19 05:33:46;;;;;;;31.15;12.77;;;3.70;99.90;;;;;;5011447;28;20026;-86
2021/12/19 05:46:35;;;;;;;27.38;12.20;;;3.80;99.90;;;;;;5017406;28;20010;-87
2021/12/19 05:49:02;;;;;;;27.33;11.80;;;3.80;99.90;;;;;;5017646;28;20044;-86
2021/12/19 05:51:29;;;;;;;32.63;12.45;;;3.70;99.90;;;;;;5017077;28;20022;-86
2021/12/19 05:53:55;;;;;;;30.45;12.52;;;3.70;99.90;;;;;;5017055;28;20127;-88
2021/12/19 05:56:22;;;;;;;27.05;11.73;;;3.70;99.90;;;;;;5014039;28;20133;-86
2021/12/19 05:58:47;;;;;;;26.42;11.57;;;3.70;99.90;;;;;;5016913;28;20045;-85
2021/12/19 06:01:13;;;;;;;26.05;11.57;;;3.60;99.90;;;;;;5019097;28;20019;-88
2021/12/19 06:03:39;;;;;;;27.88;12.35;;;3.50;99.90;;;;;;5020018;28;20036;-87
2021/12/19 06:06:06;;;;;;;30.25;12.70;;;3.50;99.90;;;;;;5021140;28;20022;-86
2021/12/19 06:08:31;;;;;;;31.95;13.23;;;3.40;99.90;;;;;;5020221;28;20026;-87
2021/12/19 06:10:57;;;;;;;26.77;12.25;;;3.30;99.90;;;;;;5018188;28;20034;-85
2021/12/19 06:13:23;;;;;;;30.60;11.88;;;3.20;99.90;;;;;;5018826;28;20082;-87
2021/12/19 06:15:52;;;;;;;33.67;12.80;;;3.20;99.90;;;;;;5014257;28;20037;-87
2021/12/19 06:18:18;;;;;;;31.73;12.40;;;3.10;99.90;;;;;;5006452;28;20046;-86
2021/12/19 06:20:44;;;;;;;29.10;12.40;;;3.10;99.90;;;;;;5009718;28;20050;-88
2021/12/19 06:23:09;;;;;;;33.97;12.60;;;3.10;99.90;;;;;;5010315;28;20089;-86
2021/12/19 06:25:36;;;;;;;33.33;12.75;;;3.00;99.90;;;;;;5011715;28;20022;-86
2021/12/19 06:28:03;;;;;;;34.45;12.95;;;3.00;99.90;;;;;;5016345;28;20021;-88
2021/12/19 06:30:29;;;;;;;31.88;14.15;;;3.00;99.90;;;;;;5018798;28;20023;-87
2021/12/19 06:32:56;;;;;;;36.95;13.20;;;2.90;99.90;;;;;;5018549;28;20034;-87
2021/12/19 06:35:28;;;;;;;35.25;14.25;;;2.90;99.90;;;;;;5019544;28;20074;-87
2021/12/19 06:37:54;;;;;;;37.30;13.15;;;2.90;99.90;;;;;;5020127;28;20045;-86
2021/12/19 06:40:21;;;;;;;35.53;13.10;;;2.80;99.90;;;;;;5018979;28;20053;-86
2021/12/19 06:42:48;;;;;;;33.78;13.98;;;2.80;99.90;;;;;;5010591;28;20027;-87
2021/12/19 06:45:14;;;;;;;37.42;14.18;;;2.70;99.90;;;;;;5010520;28;20025;-87
2021/12/19 06:47:41;;;;;;;39.25;15.30;;;2.80;99.90;;;;;;5005727;28;20060;-88
2021/12/19 06:50:08;;;;;;;38.53;13.30;;;2.70;99.90;;;;;;5012661;28;20038;-86
2021/12/19 06:52:36;;;;;;;36.22;14.75;;;2.80;99.90;;;;;;5019185;28;20061;-87
2021/12/19 06:55:01;;;;;;;37.05;13.68;;;2.80;99.90;;;;;;5020710;28;20022;-87
2021/12/19 06:57:27;;;;;;;36.25;13.20;;;2.80;99.90;;;;;;5019547;28;20029;-87
2021/12/19 06:59:53;;;;;;;36.88;13.32;;;2.80;99.90;;;;;;5020204;28;20019;-87
2021/12/19 07:02:19;;;;;;;41.25;12.52;;;2.90;99.90;;;;;;5013206;28;20030;-87
2021/12/19 07:04:45;;;;;;;31.92;13.75;;;2.90;99.90;;;;;;5013053;28;20030;-86
2021/12/19 07:07:11;;;;;;;32.20;12.70;;;2.90;99.90;;;;;;5015042;28;20022;-87
2021/12/19 07:09:38;;;;;;;31.27;12.60;;;2.90;99.90;;;;;;4998486;28;20071;-87
2021/12/19 07:12:06;;;;;;;33.78;12.93;;;3.00;99.90;;;;;;5003775;28;20123;-87
2021/12/19 07:14:32;;;;;;;34.28;12.35;;;3.10;99.90;;;;;;4992535;28;20086;-87
2021/12/19 07:16:58;;;;;;;33.92;12.23;;;3.10;99.90;;;;;;4983627;28;20655;-86
2021/12/19 07:19:24;;;;;;;28.10;11.57;;;3.20;99.90;;;;;;4997500;28;20022;-88
2021/12/19 07:21:50;;;;;;;26.83;10.98;;;3.20;99.90;;;;;;5000362;28;20034;-87
2021/12/19 07:24:16;;;;;;;26.70;10.48;;;3.30;99.90;;;;;;4999822;28;20046;-87
2021/12/19 07:26:42;;;;;;;29.17;11.18;;;3.30;99.90;;;;;;5000742;28;20015;-88
2021/12/19 07:29:08;;;;;;;27.80;10.80;;;3.40;99.90;;;;;;4999792;28;20038;-87
2021/12/19 07:31:37;;;;;;;29.95;10.32;;;3.30;99.90;;;;;;5000322;28;20019;-87
2021/12/19 07:34:04;;;;;;;21.13;9.18;;;3.30;99.90;;;;;;4994172;28;20022;-87
2021/12/19 07:36:37;;;;;;;22.40;9.23;;;3.30;99.90;;;;;;4990764;28;20012;-86
2021/12/19 07:39:13;;;;;;;25.08;9.82;;;3.40;99.90;;;;;;4997288;28;20105;-86
2021/12/19 07:41:39;;;;;;;23.58;9.45;;;3.40;99.90;;;;;;5003275;28;20037;-87
2021/12/19 07:44:07;;;;;;;25.10;10.43;;;3.40;99.90;;;;;;4994321;28;20015;-86
2021/12/19 07:46:33;;;;;;;18.60;9.07;;;3.50;99.90;;;;;;5014473;28;20031;-85
2021/12/19 07:48:59;;;;;;;23.23;9.70;;;3.50;99.90;;;;;;5029704;23;20077;-83
2021/12/19 07:51:25;;;;;;;22.20;10.13;;;3.60;99.90;;;;;;5016749;28;20034;-84
2021/12/19 07:53:51;;;;;;;21.38;8.98;;;3.60;99.90;;;;;;5000408;28;20014;-84
2021/12/19 07:56:16;;;;;;;25.02;9.68;;;3.60;99.90;;;;;;5019021;28;20101;-87
2021/12/19 07:58:42;;;;;;;25.20;8.55;;;3.60;99.90;;;;;;4994878;28;20015;-87
2021/12/19 08:01:09;;;;;;;22.15;9.57;;;3.70;99.90;;;;;;4999246;28;20023;-85
2021/12/19 08:03:35;;;;;;;19.50;8.20;;;3.80;99.90;;;;;;4983333;28;20038;-86
2021/12/19 08:06:01;;;;;;;19.90;7.75;;;3.80;99.90;;;;;;5000121;28;20038;-85
2021/12/19 08:08:31;;;;;;;22.00;8.45;;;3.80;99.90;;;;;;4999242;28;20011;-84
2021/12/19 08:13:43;;;;;;;17.05;7.57;;;4.00;99.90;;;;;;4999787;28;20049;-85
2021/12/19 08:16:09;;;;;;;19.75;7.70;;;4.10;99.90;;;;;;4999277;28;20011;-85
2021/12/19 08:18:35;;;;;;;19.42;7.60;;;4.20;99.90;;;;;;4990665;28;20027;-86
2021/12/19 08:21:01;;;;;;;18.40;6.93;;;4.40;99.90;;;;;;4966481;28;20054;-86
2021/12/19 08:23:27;;;;;;;17.55;7.82;;;4.70;99.90;;;;;;4989503;28;20014;-86
2021/12/19 08:25:53;;;;;;;14.65;7.13;;;4.80;99.90;;;;;;4998608;28;20026;-88
2021/12/19 08:28:19;;;;;;;19.15;7.75;;;5.10;99.90;;;;;;4982776;28;20027;-90
2021/12/19 08:30:45;;;;;;;15.57;7.53;;;5.60;99.90;;;;;;4982784;28;20011;-88
2021/12/19 08:33:12;;;;;;;15.75;7.13;;;6.10;99.90;;;;;;4999705;28;20022;-89
2021/12/19 08:35:38;;;;;;;15.32;7.28;;;6.70;99.90;;;;;;4999613;28;20072;-87
2021/12/19 08:38:05;;;;;;;15.93;7.30;;;7.30;99.90;;;;;;4982825;28;20038;-87
2021/12/19 08:40:32;;;;;;;13.73;7.00;;;7.60;99.90;;;;;;4979646;28;20023;-88
2021/12/19 08:42:58;;;;;;;14.95;6.57;;;7.80;99.90;;;;;;4979737;28;20035;-89
2021/12/19 08:45:24;;;;;;;16.42;7.45;;;8.00;99.90;;;;;;4995689;28;20031;-88
2021/12/19 08:47:50;;;;;;;16.58;7.32;;;8.80;99.90;;;;;;4980275;28;20015;-89
2021/12/19 08:50:18;;;;;;;14.52;7.30;;;9.50;99.90;;;;;;4979701;28;20030;-88
2021/12/19 08:52:45;;;;;;;13.98;6.70;;;10.00;99.90;;;;;;4995680;28;20034;-88
2021/12/19 08:55:14;;;;;;;12.18;7.03;;;10.60;99.90;;;;;;4979456;28;20045;-88
2021/12/19 08:57:40;;;;;;;13.32;6.88;;;10.60;99.90;;;;;;4979468;28;20026;-89
2021/12/19 09:00:10;;;;;;;14.60;7.00;;;10.50;99.90;;;;;;4980017;28;20027;-91
2021/12/19 09:02:38;;;;;;;14.90;6.68;;;11.20;99.60;;;;;;4995327;28;20086;-90
2021/12/19 09:05:04;;;;;;;12.52;7.00;;;12.00;98.20;;;;;;4976431;28;20043;-88
2021/12/19 09:07:30;;;;;;;11.30;5.97;;;12.60;96.50;;;;;;4974753;28;20034;-88
2021/12/19 09:09:56;;;;;;;11.73;6.63;;;12.90;95.80;;;;;;4974634;28;20384;-87
2021/12/19 09:12:22;;;;;;;13.15;7.10;;;13.30;94.90;;;;;;4976750;28;20024;-85
2021/12/19 09:14:48;;;;;;;15.50;7.32;;;13.70;93.90;;;;;;4994113;28;20030;-83
2021/12/19 09:17:14;;;;;;;11.23;5.90;;;13.60;93.10;;;;;;4978124;28;20023;-86
2021/12/19 09:19:41;;;;;;;12.40;6.13;;;13.10;93.40;;;;;;4978353;28;20024;-85
2021/12/19 09:22:07;;;;;;;11.23;6.07;;;13.60;93.00;;;;;;4978615;28;20023;-83
2021/12/19 09:24:33;;;;;;;10.35;5.80;;;14.00;92.50;;;;;;4978270;28;20050;-86
2021/12/19 09:27:00;;;;;;;14.15;5.97;;;13.80;92.10;;;;;;4979342;28;20027;-84
2021/12/19 09:29:28;;;;;;;13.18;5.95;;;13.90;92.10;;;;;;4978447;28;20049;-85
2021/12/19 09:31:55;;;;;;;9.18;5.07;;;13.10;91.90;;;;;;4994509;28;20027;-85
2021/12/19 09:34:22;;;;;;;11.05;5.72;;;12.90;92.40;;;;;;4978520;28;20050;-85
2021/12/19 09:37:15;;;;;;;9.77;5.25;;;13.40;92.00;;;;;;4982013;28;20016;-85
2021/12/19 09:39:42;;;;;;;8.20;4.55;;;12.90;92.40;;;;;;4995916;28;20031;-85
2021/12/19 09:42:10;;;;;;;10.00;5.70;;;12.60;92.40;;;;;;4982846;28;20074;-87
2021/12/19 09:44:38;;;;;;;11.82;5.05;;;12.50;92.30;;;;;;4982088;28;20042;-86
2021/12/19 09:47:07;;;;;;;9.45;5.95;;;12.80;92.40;;;;;;4998685;28;20019;-84
2021/12/19 09:49:34;;;;;;;11.18;5.78;;;12.80;92.20;;;;;;4982715;28;20027;-85
2021/12/19 09:52:05;;;;;;;10.23;5.63;;;12.60;92.40;;;;;;4966383;28;20042;-86
2021/12/19 09:54:32;;;;;;;9.50;4.95;;;12.40;92.70;;;;;;4983102;28;20023;-85
2021/12/19 09:56:58;;;;;;;10.98;5.82;;;13.40;91.90;;;;;;4982488;28;20019;-88
2021/12/19 09:59:25;;;;;;;11.75;5.68;;;13.20;91.60;;;;;;4982888;28;20079;-83
2021/12/19 10:01:52;;;;;;;10.30;6.07;;;13.00;91.70;;;;;;4982393;28;20029;-84
2021/12/19 10:04:38;;;;;;;10.18;5.50;;;12.10;92.80;;;;;;4998442;28;20035;-88
2021/12/19 10:07:07;;;;;;;9.73;5.85;;;12.50;92.40;;;;;;4982819;28;20027;-86
2021/12/19 10:09:33;;;;;;;11.13;5.80;;;12.60;92.10;;;;;;4986982;28;20024;-86
2021/12/19 10:12:35;;;;;;;10.20;5.63;;;12.60;92.20;;;;;;4973597;29;20170;-87
2021/12/19 10:15:29;;;;;;;10.93;5.43;;;12.80;91.90;;;;;;4984321;28;20127;-86
2021/12/19 10:18:08;;;;;;;8.82;5.20;;;13.00;91.60;;;;;;4996851;28;20108;-85
2021/12/19 10:20:49;;;;;;;12.18;6.00;;;13.10;91.20;;;;;;4996908;28;20027;-85
2021/12/19 10:23:18;;;;;;;10.50;5.25;;;13.20;91.20;;;;;;4997262;28;20254;-88
2021/12/19 10:25:53;;;;;;;8.43;4.68;;;13.30;91.00;;;;;;4994892;28;20474;-86
2021/12/19 10:28:19;;;;;;;8.88;4.80;;;13.50;90.80;;;;;;4997639;28;20542;-87
2021/12/19 10:30:47;;;;;;;8.60;4.60;;;13.90;90.50;;;;;;4994945;28;20042;-88
2021/12/19 10:33:16;;;;;;;6.88;3.63;;;13.70;90.40;;;;;;4987527;28;20050;-88
2021/12/19 10:35:50;;;;;;;9.07;5.07;;;14.40;89.90;;;;;;4976661;28;20031;-86
2021/12/19 10:38:23;;;;;;;8.35;4.35;;;15.50;87.60;;;;;;4975199;28;20031;-87
2021/12/19 10:41:09;;;;;;;9.65;4.53;;;16.10;85.40;;;;;;4984690;28;20090;-87
2021/12/19 10:43:51;;;;;;;9.68;3.90;;;15.30;84.80;;;;;;4984345;28;20034;-87
2021/12/19 10:46:27;;;;;;;5.68;3.65;;;15.60;84.70;;;;;;4968301;28;20026;-85
2021/12/19 10:48:53;;;;;;;6.57;3.67;;;15.90;83.30;;;;;;4984474;28;20109;-87
2021/12/19 10:51:20;;;;;;;5.53;3.45;;;15.90;83.20;;;;;;4983606;28;20034;-87
2021/12/19 10:53:55;;;;;;;5.00;3.00;;;15.80;82.40;;;;;;4974557;28;20042;-86
2021/12/19 10:56:22;;;;;;;5.60;3.35;;;15.90;82.40;;;;;;4985724;28;20031;-87
2021/12/19 10:58:54;;;;;;;6.25;3.33;;;16.00;81.80;;;;;;4985824;28;20087;-85
2021/12/19 11:01:37;;;;;;;4.28;3.00;;;15.50;82.10;;;;;;4986782;28;20490;-86
2021/12/19 11:04:06;;;;;;;6.72;3.15;;;15.70;82.10;;;;;;4986884;28;20512;-85
2021/12/19 11:06:35;;;;;;;6.60;2.75;;;16.00;81.40;;;;;;4985842;28;20026;-78
2021/12/19 11:09:13;;;;;;;5.60;3.47;;;16.50;91.00;;;;;;4984687;28;20022;-88
2021/12/19 11:12:00;;;;;;;6.22;3.33;;;16.30;82.70;;;;;;4986982;28;20065;-86
2021/12/19 11:14:37;;;;;;;6.85;3.47;;;16.20;81.70;;;;;;4986525;28;20042;-87
2021/12/19 11:17:16;;;;;;;7.55;3.50;;;16.30;80.90;;;;;;4985604;28;20094;-87
2021/12/19 11:19:44;;;;;;;6.70;3.70;;;16.20;80.30;;;;;;4985498;28;20046;-87
2021/12/19 11:22:11;;;;;;;7.28;4.07;;;16.00;80.90;;;;;;4983883;28;20077;-88
2021/12/19 11:24:37;;;;;;;7.25;4.05;;;15.80;80.90;;;;;;4984049;28;20042;-86
2021/12/19 11:27:06;;;;;;;9.38;3.88;;;15.60;81.80;;;;;;4994632;28;20080;-85
2021/12/19 11:29:32;;;;;;;10.13;4.60;;;15.60;81.00;;;;;;4985027;28;20058;-87
2021/12/19 11:32:01;;;;;;;7.20;4.15;;;15.80;80.30;;;;;;4983378;28;20670;-87
2021/12/19 11:35:01;;;;;;;7.47;4.50;;;15.60;80.90;;;;;;4982016;28;20360;-89
2021/12/19 11:37:34;;;;;;;10.80;5.22;;;15.40;81.30;;;;;;4982757;28;20031;-87
2021/12/19 11:40:04;;;;;;;8.52;4.13;;;14.40;82.60;;;;;;4985464;28;20045;-89
2021/12/19 11:42:38;;;;;;;11.35;4.60;;;12.80;85.80;;;;;;4984162;28;20023;-87
2021/12/19 11:47:56;;;;;;;7.15;4.13;;;10.90;90.90;;;;;;4987244;28;19918;-87
2021/12/19 11:50:29;;;;;;;8.68;4.18;;;10.20;92.20;;;;;;4988007;28;20034;-87
2021/12/19 11:53:19;;;;;;;8.60;4.28;;;9.70;93.30;;;;;;4976366;28;20391;-87
2021/12/19 11:55:51;;;;;;;8.00;4.03;;;9.40;94.10;;;;;;5005220;28;20471;-85
2021/12/19 11:58:23;;;;;;;6.32;3.47;;;9.10;94.90;;;;;;4981581;28;20050;-86
2021/12/19 12:00:53;;;;;;;7.28;3.35;;;8.90;95.50;;;;;;4983633;28;20066;-86
2021/12/19 12:03:21;;;;;;;7.80;4.25;;;8.70;96.20;;;;;;4974659;29;20333;-88
2021/12/19 12:05:53;;;;;;;9.25;4.15;;;8.70;96.90;;;;;;4976301;28;20015;-86
2021/12/19 12:08:24;;;;;;;6.60;3.63;;;8.40;97.40;;;;;;4977691;28;20023;-85
2021/12/19 12:11:09;;;;;;;8.27;3.75;;;8.30;97.80;;;;;;4934810;29;20094;-86
2021/12/19 12:13:38;;;;;;;6.90;3.23;;;8.10;98.40;;;;;;4967787;28;20090;-89
2021/12/19 12:18:41;;;;;;;6.25;3.60;;;7.90;99.90;;;;;;4964167;28;20545;-86
2021/12/19 12:21:30;;;;;;;6.82;3.40;;;7.80;99.90;;;;;;4966147;28;20027;-90
2021/12/19 12:24:03;;;;;;;7.00;3.58;;;7.70;99.90;;;;;;4974020;28;20031;-86
2021/12/19 12:27:05;;;;;;;7.85;3.55;;;7.50;99.90;;;;;;4968556;28;20114;-87
2021/12/19 12:29:32;;;;;;;6.70;3.20;;;7.60;99.90;;;;;;4968611;29;20047;-87
2021/12/19 12:31:57;;;;;;;5.53;2.90;;;7.70;99.90;;;;;;4979313;28;20027;-83
2021/12/19 12:34:23;;;;;;;7.10;3.58;;;7.80;99.90;;;;;;4979695;28;20027;-84
2021/12/19 12:36:51;;;;;;;7.40;3.78;;;7.90;99.90;;;;;;4974793;28;20039;-88
2021/12/19 12:39:23;;;;;;;9.52;3.50;;;8.00;99.90;;;;;;4979846;28;20026;-85
2021/12/19 12:42:00;;;;;;;5.55;3.30;;;8.10;99.90;;;;;;4981925;28;20016;-85
2021/12/19 12:44:27;;;;;;;6.70;3.45;;;8.00;99.90;;;;;;4973152;28;20631;-90
2021/12/19 12:46:53;;;;;;;6.70;3.17;;;8.00;99.90;;;;;;4981568;28;20043;-84
2021/12/19 12:49:25;;;;;;;6.13;2.92;;;7.90;99.90;;;;;;4990105;28;20031;-86
2021/12/19 12:51:57;;;;;;;5.70;3.20;;;8.00;99.90;;;;;;4974299;28;20015;-86
2021/12/19 12:54:30;;;;;;;5.80;2.85;;;7.90;99.90;;;;;;4989122;28;20038;-87
2021/12/19 12:56:58;;;;;;;7.68;2.83;;;7.90;99.90;;;;;;4983578;28;20077;-87
2021/12/19 12:59:30;;;;;;;5.80;2.80;;;7.80;99.90;;;;;;4990402;28;20039;-85
2021/12/19 13:04:41;;;;;;;6.63;3.08;;;7.70;99.90;;;;;;4984382;28;20069;-87
2021/12/19 13:07:11;;;;;;;3.90;2.50;;;7.70;99.90;;;;;;4976355;28;20018;-85
2021/12/19 13:09:46;;;;;;;5.07;2.38;;;7.60;99.90;;;;;;4990136;28;20088;-85
2021/12/19 13:12:22;;;;;;;5.97;2.55;;;7.50;99.90;;;;;;4976262;28;20010;-85
2021/12/19 13:14:58;;;;;;;7.25;2.15;;;7.40;99.90;;;;;;4989766;28;20035;-86
2021/12/19 13:17:29;;;;;;;5.22;2.45;;;7.30;99.90;;;;;;4990897;28;20043;-85
2021/12/19 13:20:15;;;;;;;5.20;2.65;;;7.20;99.90;;;;;;4990756;28;20027;-85
2021/12/19 13:22:47;;;;;;;6.57;3.03;;;7.00;99.90;;;;;;4986257;28;20054;-87
2021/12/19 13:25:22;;;;;;;4.22;2.22;;;7.00;99.90;;;;;;4984793;28;20132;-86
2021/12/19 13:27:51;;;;;;;3.83;2.20;;;7.00;99.90;;;;;;4976109;28;20026;-85
2021/12/19 13:30:21;;;;;;;4.22;2.42;;;6.90;99.90;;;;;;4997067;28;20022;-84
2021/12/19 13:33:08;;;;;;;4.15;2.55;;;6.90;99.90;;;;;;4998371;28;20031;-84
2021/12/19 13:35:53;;;;;;;4.40;2.67;;;6.90;99.90;;;;;;4998162;28;20067;-83
2021/12/19 13:38:23;;;;;;;4.30;2.40;;;6.80;99.90;;;;;;4997246;28;20046;-83
2021/12/19 13:41:01;;;;;;;5.10;2.38;;;6.70;99.90;;;;;;4994118;28;20043;-85
2021/12/19 13:43:33;;;;;;;5.00;2.85;;;6.70;99.90;;;;;;4995203;28;20026;-83
2021/12/19 13:46:08;;;;;;;7.43;3.00;;;6.80;99.90;;;;;;4998316;28;20030;-83
2021/12/19 13:48:49;;;;;;;6.93;2.65;;;6.70;99.90;;;;;;5009008;23;20247;-88
2021/12/19 13:51:22;;;;;;;7.45;2.95;;;6.70;99.90;;;;;;5017439;28;20041;-90
2021/12/19 13:53:52;;;;;;;6.47;3.00;;;6.70;99.90;;;;;;5017700;28;20014;-87
2021/12/19 13:56:20;;;;;;;6.60;2.92;;;6.70;99.90;;;;;;5017779;28;20086;-88
2021/12/19 13:58:54;;;;;;;8.32;3.28;;;6.70;99.90;;;;;;5017238;28;20023;-88
2021/12/19 14:01:23;;;;;;;5.78;3.30;;;6.70;99.90;;;;;;5008451;28;20019;-87
2021/12/19 14:03:55;;;;;;;5.50;2.83;;;6.70;99.90;;;;;;4998168;28;20050;-87
2021/12/19 14:06:29;;;;;;;9.07;3.67;;;6.70;99.90;;;;;;4981328;28;20039;-87
2021/12/19 14:09:19;;;;;;;5.90;2.80;;;6.80;99.90;;;;;;5008308;28;20106;-88
2021/12/19 14:11:56;;;;;;;6.22;3.28;;;6.80;99.90;;;;;;5010724;28;20050;-88